sensor_id;sensor_type;location;lat;lon;timestamp;pressure;altitude;pressure_sealevel;temperature;humidity
86206;BME280;76857;48.140;11.594;2024-02-28T05:01:55;95854.63;;;5.67;78.74
86206;BME280;76857;48.140;11.594;2024-02-28T05:04:21;95853.00;;;5.72;78.07
86206;BME280;76857;48.140;11.594;2024-02-28T05:06:47;95858.69;;;5.76;77.46
86206;BME280;76857;48.140;11.594;2024-02-28T05:09:12;95856.22;;;5.74;78.29
86206;BME280;76857;48.140;11.594;2024-02-28T05:11:37;95859.28;;;5.78;77.74
86206;BME280;76857;48.140;11.594;2024-02-28T05:14:03;95864.38;;;5.79;77.31
86206;BME280;76857;48.140;11.594;2024-02-28T05:16:28;95863.97;;;5.82;77.40
86206;BME280;76857;48.140;11.594;2024-02-28T05:18:54;95864.38;;;5.79;77.60
86206;BME280;76857;48.140;11.594;2024-02-28T05:21:19;95866.81;;;5.74;77.74
86206;BME280;76857;48.140;11.594;2024-02-28T05:23:45;95871.31;;;5.67;78.72
86206;BME280;76857;48.140;11.594;2024-02-28T05:26:10;95867.44;;;5.76;77.37
86206;BME280;76857;48.140;11.594;2024-02-28T05:28:35;95867.63;;;5.75;78.19
86206;BME280;76857;48.140;11.594;2024-02-28T05:31:23;95878.84;;;5.77;77.49
86206;BME280;76857;48.140;11.594;2024-02-28T05:33:56;95878.22;;;5.81;77.41
86206;BME280;76857;48.140;11.594;2024-02-28T05:36:23;95890.63;;;5.74;77.49
86206;BME280;76857;48.140;11.594;2024-02-28T05:38:49;95891.47;;;5.81;77.17
86206;BME280;76857;48.140;11.594;2024-02-28T05:41:16;95891.25;;;5.83;77.83
86206;BME280;76857;48.140;11.594;2024-02-28T05:43:42;95891.25;;;5.76;77.97
86206;BME280;76857;48.140;11.594;2024-02-28T05:46:07;95899.59;;;5.73;77.90
86206;BME280;76857;48.140;11.594;2024-02-28T05:48:33;95910.00;;;5.75;77.84
86206;BME280;76857;48.140;11.594;2024-02-28T05:51:00;95917.31;;;5.66;78.08
86206;BME280;76857;48.140;11.594;2024-02-28T05:53:26;95917.09;;;5.68;78.24
86206;BME280;76857;48.140;11.594;2024-02-28T05:55:52;95919.16;;;5.66;77.92
86206;BME280;76857;48.140;11.594;2024-02-28T05:58:22;95927.28;;;5.64;78.45
86206;BME280;76857;48.140;11.594;2024-02-28T06:00:47;95926.28;;;5.65;78.44
86206;BME280;76857;48.140;11.594;2024-02-28T06:03:13;95946.84;;;5.70;77.71
86206;BME280;76857;48.140;11.594;2024-02-28T06:05:38;95943.56;;;5.68;78.20
86206;BME280;76857;48.140;11.594;2024-02-28T06:08:04;95937.50;;;5.67;78.09
86206;BME280;76857;48.140;11.594;2024-02-28T06:10:29;95942.34;;;5.64;78.16
86206;BME280;76857;48.140;11.594;2024-02-28T06:12:55;95939.91;;;5.62;78.65
86206;BME280;76857;48.140;11.594;2024-02-28T06:15:20;95952.75;;;5.65;78.19
86206;BME280;76857;48.140;11.594;2024-02-28T06:17:45;95951.94;;;5.65;77.70
86206;BME280;76857;48.140;11.594;2024-02-28T06:20:11;95948.88;;;5.74;77.84
86206;BME280;76857;48.140;11.594;2024-02-28T06:22:36;95953.56;;;5.66;78.48
86206;BME280;76857;48.140;11.594;2024-02-28T06:25:02;95962.31;;;5.66;78.58
86206;BME280;76857;48.140;11.594;2024-02-28T06:27:27;95964.16;;;5.85;78.11
86206;BME280;76857;48.140;11.594;2024-02-28T06:29:53;95966.22;;;5.83;78.91
86206;BME280;76857;48.140;11.594;2024-02-28T06:32:18;95981.28;;;5.89;78.09
86206;BME280;76857;48.140;11.594;2024-02-28T06:34:43;95981.53;;;5.88;77.96
86206;BME280;76857;48.140;11.594;2024-02-28T06:37:09;95983.50;;;5.86;77.89
86206;BME280;76857;48.140;11.594;2024-02-28T06:39:34;95989.63;;;5.86;78.24
86206;BME280;76857;48.140;11.594;2024-02-28T06:41:59;95992.94;;;5.88;77.20
86206;BME280;76857;48.140;11.594;2024-02-28T06:44:25;95996.75;;;5.79;78.36
86206;BME280;76857;48.140;11.594;2024-02-28T06:46:50;95985.75;;;5.82;77.50
86206;BME280;76857;48.140;11.594;2024-02-28T06:49:16;96002.25;;;5.78;78.13
86206;BME280;76857;48.140;11.594;2024-02-28T06:51:43;95996.34;;;5.82;77.75
86206;BME280;76857;48.140;11.594;2024-02-28T06:54:09;96001.66;;;5.82;77.64
86206;BME280;76857;48.140;11.594;2024-02-28T06:56:35;96003.28;;;5.90;77.83
86206;BME280;76857;48.140;11.594;2024-02-28T06:59:01;96003.94;;;5.99;77.36
86206;BME280;76857;48.140;11.594;2024-02-28T07:01:27;96009.25;;;6.05;76.85
86206;BME280;76857;48.140;11.594;2024-02-28T07:03:52;96011.88;;;6.05;77.21
86206;BME280;76857;48.140;11.594;2024-02-28T07:06:18;96008.41;;;6.11;76.81
86206;BME280;76857;48.140;11.594;2024-02-28T07:08:43;96018.22;;;6.11;76.66
86206;BME280;76857;48.140;11.594;2024-02-28T07:11:15;96019.00;;;6.11;76.85
86206;BME280;76857;48.140;11.594;2024-02-28T07:13:41;96020.03;;;6.10;76.69
86206;BME280;76857;48.140;11.594;2024-02-28T07:16:06;96024.28;;;6.11;77.04
86206;BME280;76857;48.140;11.594;2024-02-28T07:18:33;96023.69;;;6.03;77.42
86206;BME280;76857;48.140;11.594;2024-02-28T07:20:58;96021.44;;;6.06;77.49
86206;BME280;76857;48.140;11.594;2024-02-28T07:23:24;96025.13;;;6.12;77.33
86206;BME280;76857;48.140;11.594;2024-02-28T07:25:50;96023.72;;;6.16;76.62
86206;BME280;76857;48.140;11.594;2024-02-28T07:28:15;96023.91;;;6.14;76.58
86206;BME280;76857;48.140;11.594;2024-02-28T07:30:40;96033.47;;;6.15;76.50
86206;BME280;76857;48.140;11.594;2024-02-28T07:33:06;96032.66;;;6.08;77.04
86206;BME280;76857;48.140;11.594;2024-02-28T07:35:31;96022.25;;;6.13;76.66
86206;BME280;76857;48.140;11.594;2024-02-28T07:37:57;96014.31;;;6.00;76.48
86206;BME280;76857;48.140;11.594;2024-02-28T07:40:22;96020.41;;;6.01;77.14
86206;BME280;76857;48.140;11.594;2024-02-28T07:42:47;96019.63;;;5.94;77.01
86206;BME280;76857;48.140;11.594;2024-02-28T07:45:13;96018.81;;;6.00;76.36
86206;BME280;76857;48.140;11.594;2024-02-28T07:47:38;96019.84;;;6.05;76.70
86206;BME280;76857;48.140;11.594;2024-02-28T07:50:06;96018.38;;;6.03;77.20
86206;BME280;76857;48.140;11.594;2024-02-28T07:52:31;96028.78;;;6.04;77.35
86206;BME280;76857;48.140;11.594;2024-02-28T07:55:00;96024.47;;;5.90;77.41
86206;BME280;76857;48.140;11.594;2024-02-28T07:57:25;96037.34;;;5.93;77.46
86206;BME280;76857;48.140;11.594;2024-02-28T07:59:51;96036.09;;;5.96;77.51
86206;BME280;76857;48.140;11.594;2024-02-28T08:02:16;96046.72;;;6.09;76.72
86206;BME280;76857;48.140;11.594;2024-02-28T08:04:45;96039.78;;;6.27;76.34
86206;BME280;76857;48.140;11.594;2024-02-28T08:07:10;96042.03;;;6.17;76.02
86206;BME280;76857;48.140;11.594;2024-02-28T08:09:36;96045.09;;;6.27;76.00
86206;BME280;76857;48.140;11.594;2024-02-28T08:12:01;96053.66;;;6.29;75.78
86206;BME280;76857;48.140;11.594;2024-02-28T08:14:27;96048.97;;;6.32;75.61
86206;BME280;76857;48.140;11.594;2024-02-28T08:16:52;96057.94;;;6.30;75.58
86206;BME280;76857;48.140;11.594;2024-02-28T08:19:18;96062.03;;;6.26;75.47
86206;BME280;76857;48.140;11.594;2024-02-28T08:21:43;96061.41;;;6.24;76.22
86206;BME280;76857;48.140;11.594;2024-02-28T08:24:09;96065.88;;;6.24;75.67
86206;BME280;76857;48.140;11.594;2024-02-28T08:26:35;96061.81;;;6.28;75.66
86206;BME280;76857;48.140;11.594;2024-02-28T08:29:01;96060.41;;;6.32;75.68
86206;BME280;76857;48.140;11.594;2024-02-28T08:31:27;96061.00;;;6.34;75.22
86206;BME280;76857;48.140;11.594;2024-02-28T08:33:53;96074.66;;;6.31;75.61
86206;BME280;76857;48.140;11.594;2024-02-28T08:36:20;96070.38;;;6.37;75.34
86206;BME280;76857;48.140;11.594;2024-02-28T08:38:46;96078.91;;;6.39;75.35
86206;BME280;76857;48.140;11.594;2024-02-28T08:41:11;96071.78;;;6.39;75.37
86206;BME280;76857;48.140;11.594;2024-02-28T08:43:40;96077.72;;;6.48;75.05
86206;BME280;76857;48.140;11.594;2024-02-28T08:46:06;96074.06;;;6.49;74.46
86206;BME280;76857;48.140;11.594;2024-02-28T08:48:34;96071.00;;;6.65;74.20
86206;BME280;76857;48.140;11.594;2024-02-28T08:51:00;96077.50;;;6.69;74.09
86206;BME280;76857;48.140;11.594;2024-02-28T08:53:26;96079.53;;;6.73;74.29
86206;BME280;76857;48.140;11.594;2024-02-28T08:55:51;96078.31;;;6.76;73.67
86206;BME280;76857;48.140;11.594;2024-02-28T08:58:17;96083.63;;;6.69;73.85
86206;BME280;76857;48.140;11.594;2024-02-28T09:00:43;96085.47;;;6.69;73.63
86206;BME280;76857;48.140;11.594;2024-02-28T09:03:08;96090.97;;;6.67;73.85
86206;BME280;76857;48.140;11.594;2024-02-28T09:05:33;96081.59;;;6.65;73.60
86206;BME280;76857;48.140;11.594;2024-02-28T09:07:59;96090.38;;;6.59;74.02
86206;BME280;76857;48.140;11.594;2024-02-28T09:10:24;96090.75;;;6.49;75.39
86206;BME280;76857;48.140;11.594;2024-02-28T09:12:51;96092.19;;;6.52;74.45
86206;BME280;76857;48.140;11.594;2024-02-28T09:15:16;96094.84;;;6.45;74.62
86206;BME280;76857;48.140;11.594;2024-02-28T09:17:42;96092.81;;;6.47;74.88
86206;BME280;76857;48.140;11.594;2024-02-28T09:20:07;96094.03;;;6.51;74.80
86206;BME280;76857;48.140;11.594;2024-02-28T09:22:33;96105.84;;;6.55;75.02
86206;BME280;76857;48.140;11.594;2024-02-28T09:25:00;96103.00;;;6.57;74.72
86206;BME280;76857;48.140;11.594;2024-02-28T09:27:27;96111.97;;;6.56;74.59
86206;BME280;76857;48.140;11.594;2024-02-28T09:29:52;96116.66;;;6.54;74.75
86206;BME280;76857;48.140;11.594;2024-02-28T09:32:18;96116.44;;;6.55;74.64
86206;BME280;76857;48.140;11.594;2024-02-28T09:34:43;96114.22;;;6.59;74.54
86206;BME280;76857;48.140;11.594;2024-02-28T09:37:09;96121.75;;;6.62;74.35
86206;BME280;76857;48.140;11.594;2024-02-28T09:39:34;96118.72;;;6.58;74.60
86206;BME280;76857;48.140;11.594;2024-02-28T09:42:02;96124.81;;;6.59;74.32
86206;BME280;76857;48.140;11.594;2024-02-28T09:44:28;96118.47;;;6.66;73.82
86206;BME280;76857;48.140;11.594;2024-02-28T09:46:54;96127.47;;;6.72;73.58
86206;BME280;76857;48.140;11.594;2024-02-28T09:49:19;96125.22;;;6.69;73.63
86206;BME280;76857;48.140;11.594;2024-02-28T09:51:48;96128.28;;;6.72;73.68
86206;BME280;76857;48.140;11.594;2024-02-28T09:54:15;96121.75;;;6.82;73.08
86206;BME280;76857;48.140;11.594;2024-02-28T09:56:40;96120.94;;;6.81;73.09
86206;BME280;76857;48.140;11.594;2024-02-28T09:59:06;96124.63;;;6.80;72.84
86206;BME280;76857;48.140;11.594;2024-02-28T10:01:32;96117.47;;;6.87;73.27
86206;BME280;76857;48.140;11.594;2024-02-28T10:04:02;96122.56;;;7.02;72.54
86206;BME280;76857;48.140;11.594;2024-02-28T10:06:28;96121.31;;;7.18;71.59
86206;BME280;76857;48.140;11.594;2024-02-28T10:08:53;96120.47;;;7.17;71.55
86206;BME280;76857;48.140;11.594;2024-02-28T10:11:19;96119.66;;;7.17;71.97
86206;BME280;76857;48.140;11.594;2024-02-28T10:13:47;96116.81;;;7.18;70.77
86206;BME280;76857;48.140;11.594;2024-02-28T10:16:12;96118.44;;;7.19;71.05
86206;BME280;76857;48.140;11.594;2024-02-28T10:18:39;96123.75;;;7.19;71.03
86206;BME280;76857;48.140;11.594;2024-02-28T10:21:05;96121.31;;;7.18;71.52
86206;BME280;76857;48.140;11.594;2024-02-28T10:23:30;96127.41;;;7.18;71.31
86206;BME280;76857;48.140;11.594;2024-02-28T10:25:56;96124.75;;;7.25;70.82
86206;BME280;76857;48.140;11.594;2024-02-28T10:28:22;96132.50;;;7.26;70.57
86206;BME280;76857;48.140;11.594;2024-02-28T10:30:47;96133.31;;;7.27;70.58
86206;BME280;76857;48.140;11.594;2024-02-28T10:33:13;96128.81;;;7.27;70.46
86206;BME280;76857;48.140;11.594;2024-02-28T10:35:40;96129.63;;;7.34;69.94
86206;BME280;76857;48.140;11.594;2024-02-28T10:38:06;96138.81;;;7.32;70.41
86206;BME280;76857;48.140;11.594;2024-02-28T10:40:31;96132.28;;;7.34;69.58
86206;BME280;76857;48.140;11.594;2024-02-28T10:42:57;96127.00;;;7.21;69.59
86206;BME280;76857;48.140;11.594;2024-02-28T10:45:24;96128.44;;;7.24;69.80
86206;BME280;76857;48.140;11.594;2024-02-28T10:47:51;96134.31;;;7.26;69.15
86206;BME280;76857;48.140;11.594;2024-02-28T10:50:17;96130.66;;;7.20;69.86
86206;BME280;76857;48.140;11.594;2024-02-28T10:52:46;96126.78;;;7.29;69.55
86206;BME280;76857;48.140;11.594;2024-02-28T10:57:53;96133.94;;;7.29;69.87
86206;BME280;76857;48.140;11.594;2024-02-28T11:00:23;96136.34;;;7.37;69.91
86206;BME280;76857;48.140;11.594;2024-02-28T11:02:49;96141.84;;;7.42;69.60
86206;BME280;76857;48.140;11.594;2024-02-28T11:05:14;96141.63;;;7.50;69.20
86206;BME280;76857;48.140;11.594;2024-02-28T11:07:43;96139.16;;;7.62;68.69
86206;BME280;76857;48.140;11.594;2024-02-28T11:10:09;96140.34;;;7.66;68.25
86206;BME280;76857;48.140;11.594;2024-02-28T11:12:35;96145.66;;;7.66;68.31
86206;BME280;76857;48.140;11.594;2024-02-28T11:15:03;96143.25;;;7.57;68.80
86206;BME280;76857;48.140;11.594;2024-02-28T11:17:32;96142.81;;;7.67;68.78
86206;BME280;76857;48.140;11.594;2024-02-28T11:19:58;96144.44;;;7.68;67.86
86206;BME280;76857;48.140;11.594;2024-02-28T11:22:27;96149.38;;;7.58;68.85
86206;BME280;76857;48.140;11.594;2024-02-28T11:24:53;96156.16;;;7.41;69.44
86206;BME280;76857;48.140;11.594;2024-02-28T11:27:19;96161.09;;;7.31;70.27
86206;BME280;76857;48.140;11.594;2024-02-28T11:29:44;96159.84;;;7.33;69.87
86206;BME280;76857;48.140;11.594;2024-02-28T11:32:12;96151.69;;;7.28;70.00
86206;BME280;76857;48.140;11.594;2024-02-28T11:34:39;96150.69;;;7.29;70.25
86206;BME280;76857;48.140;11.594;2024-02-28T11:37:09;96154.53;;;7.33;70.63
86206;BME280;76857;48.140;11.594;2024-02-28T11:39:34;96153.53;;;7.28;69.55
86206;BME280;76857;48.140;11.594;2024-02-28T11:42:10;96151.50;;;7.23;70.14
86206;BME280;76857;48.140;11.594;2024-02-28T11:44:38;96151.50;;;7.23;69.95
86206;BME280;76857;48.140;11.594;2024-02-28T11:47:03;96154.56;;;7.20;70.51
86206;BME280;76857;48.140;11.594;2024-02-28T11:49:28;96152.31;;;7.17;70.78
86206;BME280;76857;48.140;11.594;2024-02-28T11:51:54;96159.47;;;7.17;70.84
86206;BME280;76857;48.140;11.594;2024-02-28T11:54:19;96146.00;;;7.18;70.45
86206;BME280;76857;48.140;11.594;2024-02-28T11:56:45;96151.31;;;7.18;70.78
86206;BME280;76857;48.140;11.594;2024-02-28T11:59:13;96153.16;;;7.11;70.54
86206;BME280;76857;48.140;11.594;2024-02-28T12:01:41;96161.31;;;7.09;70.65
86206;BME280;76857;48.140;11.594;2024-02-28T12:04:08;96158.06;;;7.07;70.34
86206;BME280;76857;48.140;11.594;2024-02-28T12:06:36;96159.28;;;7.05;71.02
86206;BME280;76857;48.140;11.594;2024-02-28T12:09:03;96155.81;;;6.98;71.34
86206;BME280;76857;48.140;11.594;2024-02-28T12:11:30;96158.44;;;7.04;71.23
86206;BME280;76857;48.140;11.594;2024-02-28T12:13:55;96163.38;;;6.94;71.15
86206;BME280;76857;48.140;11.594;2024-02-28T12:16:25;96156.41;;;7.00;71.27
86206;BME280;76857;48.140;11.594;2024-02-28T12:18:53;96165.00;;;7.02;71.38
86206;BME280;76857;48.140;11.594;2024-02-28T12:21:21;96159.06;;;7.00;70.93
86206;BME280;76857;48.140;11.594;2024-02-28T12:23:49;96163.78;;;6.98;71.35
86206;BME280;76857;48.140;11.594;2024-02-28T12:26:16;96160.91;;;7.06;70.91
86206;BME280;76857;48.140;11.594;2024-02-28T12:28:43;96154.59;;;7.13;72.02
86206;BME280;76857;48.140;11.594;2024-02-28T12:31:08;96158.03;;;7.21;70.19
86206;BME280;76857;48.140;11.594;2024-02-28T12:33:37;96158.25;;;7.19;70.59
86206;BME280;76857;48.140;11.594;2024-02-28T12:36:02;96165.38;;;7.25;70.44
86206;BME280;76857;48.140;11.594;2024-02-28T12:38:29;96162.69;;;7.32;69.69
86206;BME280;76857;48.140;11.594;2024-02-28T12:40:57;96168.84;;;7.26;69.68
86206;BME280;76857;48.140;11.594;2024-02-28T12:43:22;96160.72;;;7.14;69.78
86206;BME280;76857;48.140;11.594;2024-02-28T12:45:48;96161.91;;;7.18;69.34
86206;BME280;76857;48.140;11.594;2024-02-28T12:48:13;96164.78;;;7.23;69.23
86206;BME280;76857;48.140;11.594;2024-02-28T12:50:39;96157.44;;;7.25;69.43
86206;BME280;76857;48.140;11.594;2024-02-28T12:53:04;96155.78;;;7.24;69.60
86206;BME280;76857;48.140;11.594;2024-02-28T12:55:31;96152.50;;;7.22;69.88
86206;BME280;76857;48.140;11.594;2024-02-28T12:57:56;96158.25;;;7.19;69.88
86206;BME280;76857;48.140;11.594;2024-02-28T13:00:21;96147.84;;;7.11;70.14
86206;BME280;76857;48.140;11.594;2024-02-28T13:02:47;96159.47;;;7.10;70.37
86206;BME280;76857;48.140;11.594;2024-02-28T13:05:12;96153.16;;;7.04;70.37
86206;BME280;76857;48.140;11.594;2024-02-28T13:07:40;96154.97;;;7.10;70.15
86206;BME280;76857;48.140;11.594;2024-02-28T13:10:07;96152.13;;;7.05;69.96
86206;BME280;76857;48.140;11.594;2024-02-28T13:12:32;96155.59;;;7.12;70.26
86206;BME280;76857;48.140;11.594;2024-02-28T13:14:58;96155.59;;;7.12;70.21
86206;BME280;76857;48.140;11.594;2024-02-28T13:17:24;96149.66;;;7.17;70.06
86206;BME280;76857;48.140;11.594;2024-02-28T13:19:50;96158.44;;;7.18;70.29
86206;BME280;76857;48.140;11.594;2024-02-28T13:22:16;96162.13;;;7.23;69.99
86206;BME280;76857;48.140;11.594;2024-02-28T13:24:41;96156.63;;;7.18;69.82
86206;BME280;76857;48.140;11.594;2024-02-28T13:27:07;96163.16;;;6.96;70.30
86206;BME280;76857;48.140;11.594;2024-02-28T13:29:34;96157.47;;;6.92;71.29
86206;BME280;76857;48.140;11.594;2024-02-28T13:32:00;96162.97;;;6.97;71.10
86206;BME280;76857;48.140;11.594;2024-02-28T13:34:26;96165.81;;;7.02;71.31
86206;BME280;76857;48.140;11.594;2024-02-28T13:36:52;96159.06;;;7.13;70.62
86206;BME280;76857;48.140;11.594;2024-02-28T13:39:18;96165.63;;;6.97;70.74
86206;BME280;76857;48.140;11.594;2024-02-28T13:41:43;96164.78;;;6.90;71.12
86206;BME280;76857;48.140;11.594;2024-02-28T13:44:08;96163.78;;;6.78;71.57
86206;BME280;76857;48.140;11.594;2024-02-28T13:46:35;96158.28;;;6.80;71.43
86206;BME280;76857;48.140;11.594;2024-02-28T13:49:00;96162.13;;;6.84;71.22
86206;BME280;76857;48.140;11.594;2024-02-28T13:51:25;96163.38;;;6.81;71.67
86206;BME280;76857;48.140;11.594;2024-02-28T13:53:51;96165.63;;;6.84;71.72
86206;BME280;76857;48.140;11.594;2024-02-28T13:56:18;96163.78;;;6.78;71.50
86206;BME280;76857;48.140;11.594;2024-02-28T13:58:44;96165.19;;;6.61;72.15
86206;BME280;76857;48.140;11.594;2024-02-28T14:01:09;96167.66;;;6.69;72.08
86206;BME280;76857;48.140;11.594;2024-02-28T14:03:35;96171.72;;;6.71;72.08
86206;BME280;76857;48.140;11.594;2024-02-28T14:06:02;96166.63;;;6.70;72.20
86206;BME280;76857;48.140;11.594;2024-02-28T14:08:27;96166.63;;;6.77;72.08
86206;BME280;76857;48.140;11.594;2024-02-28T14:10:53;96161.75;;;6.87;71.11
86206;BME280;76857;48.140;11.594;2024-02-28T14:13:19;96172.34;;;6.93;71.27
86206;BME280;76857;48.140;11.594;2024-02-28T14:15:44;96173.78;;;6.96;71.22
86206;BME280;76857;48.140;11.594;2024-02-28T14:18:16;96172.53;;;7.05;70.84
86206;BME280;76857;48.140;11.594;2024-02-28T14:20:42;96172.94;;;6.89;71.41
86206;BME280;76857;48.140;11.594;2024-02-28T14:23:08;96165.81;;;6.96;71.61
86206;BME280;76857;48.140;11.594;2024-02-28T14:25:33;96168.28;;;6.97;70.75
86206;BME280;76857;48.140;11.594;2024-02-28T14:27:59;96173.97;;;7.01;70.28
86206;BME280;76857;48.140;11.594;2024-02-28T14:30:24;96179.47;;;6.99;70.71
86206;BME280;76857;48.140;11.594;2024-02-28T14:32:50;96183.16;;;6.98;70.48
86206;BME280;76857;48.140;11.594;2024-02-28T14:35:15;96182.34;;;6.98;70.22
86206;BME280;76857;48.140;11.594;2024-02-28T14:37:41;96182.94;;;7.00;70.46
86206;BME280;76857;48.140;11.594;2024-02-28T14:40:08;96192.16;;;6.97;70.00
86206;BME280;76857;48.140;11.594;2024-02-28T14:42:39;96190.31;;;6.98;69.94
86206;BME280;76857;48.140;11.594;2024-02-28T14:45:06;96193.56;;;6.93;70.15
86206;BME280;76857;48.140;11.594;2024-02-28T14:47:32;96187.44;;;6.99;70.38
86206;BME280;76857;48.140;11.594;2024-02-28T14:49:57;96198.44;;;7.09;70.13
86206;BME280;76857;48.140;11.594;2024-02-28T14:52:23;96185.41;;;7.01;69.91
86206;BME280;76857;48.140;11.594;2024-02-28T14:54:48;96192.13;;;7.04;70.45
86206;BME280;76857;48.140;11.594;2024-02-28T14:57:14;96187.44;;;6.93;69.91
86206;BME280;76857;48.140;11.594;2024-02-28T14:59:41;96189.28;;;6.99;69.77
86206;BME280;76857;48.140;11.594;2024-02-28T15:02:08;96192.34;;;6.96;69.78
86206;BME280;76857;48.140;11.594;2024-02-28T15:04:35;96191.31;;;6.90;69.85
86206;BME280;76857;48.140;11.594;2024-02-28T15:07:02;96187.84;;;6.90;69.95
86206;BME280;76857;48.140;11.594;2024-02-28T15:09:27;96188.66;;;6.90;70.32
86206;BME280;76857;48.140;11.594;2024-02-28T15:11:53;96188.28;;;6.87;69.88
86206;BME280;76857;48.140;11.594;2024-02-28T15:14:19;96185.63;;;6.80;70.32
86206;BME280;76857;48.140;11.594;2024-02-28T15:16:44;96192.34;;;6.89;70.34
86206;BME280;76857;48.140;11.594;2024-02-28T15:19:10;96194.38;;;6.81;70.31
86206;BME280;76857;48.140;11.594;2024-02-28T15:21:35;96196.41;;;6.79;70.49
86206;BME280;76857;48.140;11.594;2024-02-28T15:24:02;96191.31;;;6.77;70.40
86206;BME280;76857;48.140;11.594;2024-02-28T15:26:28;96193.38;;;6.82;70.29
86206;BME280;76857;48.140;11.594;2024-02-28T15:28:54;96196.84;;;6.76;70.51
86206;BME280;76857;48.140;11.594;2024-02-28T15:31:19;96191.94;;;6.86;70.39
86206;BME280;76857;48.140;11.594;2024-02-28T15:33:45;96194.81;;;6.97;69.88
86206;BME280;76857;48.140;11.594;2024-02-28T15:36:11;96194.56;;;7.05;69.13
86206;BME280;76857;48.140;11.594;2024-02-28T15:38:36;96197.44;;;7.10;69.27
86206;BME280;76857;48.140;11.594;2024-02-28T15:41:01;96198.03;;;6.99;69.12
86206;BME280;76857;48.140;11.594;2024-02-28T15:43:28;96198.06;;;6.86;69.12
86206;BME280;76857;48.140;11.594;2024-02-28T15:45:54;96187.44;;;6.80;69.45
86206;BME280;76857;48.140;11.594;2024-02-28T15:48:20;96200.72;;;6.86;70.00
86206;BME280;76857;48.140;11.594;2024-02-28T15:50:46;96193.97;;;6.84;69.84
86206;BME280;76857;48.140;11.594;2024-02-28T15:53:13;96195.00;;;6.96;69.57
86206;BME280;76857;48.140;11.594;2024-02-28T15:55:39;96202.34;;;7.07;68.85
86206;BME280;76857;48.140;11.594;2024-02-28T15:58:05;96200.72;;;7.12;68.19
86206;BME280;76857;48.140;11.594;2024-02-28T16:00:30;96201.53;;;7.13;68.29
86206;BME280;76857;48.140;11.594;2024-02-28T16:02:56;96196.84;;;7.02;68.62
86206;BME280;76857;48.140;11.594;2024-02-28T16:05:21;96202.53;;;7.05;68.59
86206;BME280;76857;48.140;11.594;2024-02-28T16:07:50;96212.94;;;7.00;68.51
86206;BME280;76857;48.140;11.594;2024-02-28T16:10:15;96203.34;;;6.99;68.77
86206;BME280;76857;48.140;11.594;2024-02-28T16:12:41;96203.97;;;7.01;69.33
86206;BME280;76857;48.140;11.594;2024-02-28T16:15:07;96203.56;;;7.11;68.96
86206;BME280;76857;48.140;11.594;2024-02-28T16:17:33;96199.88;;;7.12;69.89
86206;BME280;76857;48.140;11.594;2024-02-28T16:19:59;96203.16;;;7.14;68.51
86206;BME280;76857;48.140;11.594;2024-02-28T16:22:24;96211.31;;;6.99;68.87
86206;BME280;76857;48.140;11.594;2024-02-28T16:24:49;96206.44;;;7.03;68.53
86206;BME280;76857;48.140;11.594;2024-02-28T16:27:15;96203.16;;;6.94;69.04
86206;BME280;76857;48.140;11.594;2024-02-28T16:29:40;96202.53;;;7.05;68.68
86206;BME280;76857;48.140;11.594;2024-02-28T16:32:06;96198.84;;;6.93;69.44
86206;BME280;76857;48.140;11.594;2024-02-28T16:34:32;96210.31;;;6.87;69.56
86206;BME280;76857;48.140;11.594;2024-02-28T16:36:57;96200.91;;;6.78;69.68
86206;BME280;76857;48.140;11.594;2024-02-28T16:39:23;96208.03;;;6.71;70.24
86206;BME280;76857;48.140;11.594;2024-02-28T16:41:49;96196.81;;;6.62;71.07
86206;BME280;76857;48.140;11.594;2024-02-28T16:44:14;96209.69;;;6.65;70.93
86206;BME280;76857;48.140;11.594;2024-02-28T16:46:40;96199.44;;;6.56;71.02
86206;BME280;76857;48.140;11.594;2024-02-28T16:49:05;96201.28;;;6.62;70.94
86206;BME280;76857;48.140;11.594;2024-02-28T16:51:31;96206.22;;;6.65;70.56
86206;BME280;76857;48.140;11.594;2024-02-28T16:53:56;96211.50;;;6.71;70.63
86206;BME280;76857;48.140;11.594;2024-02-28T16:56:22;96204.97;;;6.67;70.72
86206;BME280;76857;48.140;11.594;2024-02-28T16:58:48;96206.81;;;6.67;70.71
86206;BME280;76857;48.140;11.594;2024-02-28T17:01:13;96207.63;;;6.67;70.85
86206;BME280;76857;48.140;11.594;2024-02-28T17:03:39;96207.63;;;6.67;70.73
86206;BME280;76857;48.140;11.594;2024-02-28T17:06:05;96222.13;;;6.65;71.05
86206;BME280;76857;48.140;11.594;2024-02-28T17:08:30;96221.91;;;6.60;71.26
86206;BME280;76857;48.140;11.594;2024-02-28T17:10:58;96217.38;;;6.60;71.12
86206;BME280;76857;48.140;11.594;2024-02-28T17:13:23;96222.88;;;6.46;71.45
86206;BME280;76857;48.140;11.594;2024-02-28T17:15:49;96223.88;;;6.45;71.59
86206;BME280;76857;48.140;11.594;2024-02-28T17:18:20;96222.88;;;6.46;72.02
86206;BME280;76857;48.140;11.594;2024-02-28T17:20:46;96222.91;;;6.52;71.68
86206;BME280;76857;48.140;11.594;2024-02-28T17:23:12;96227.13;;;6.40;72.77
86206;BME280;76857;48.140;11.594;2024-02-28T17:25:37;96224.69;;;6.39;72.92
86206;BME280;76857;48.140;11.594;2024-02-28T17:28:03;96228.50;;;6.23;73.69
86206;BME280;76857;48.140;11.594;2024-02-28T17:30:29;96233.22;;;6.27;73.64
86206;BME280;76857;48.140;11.594;2024-02-28T17:32:54;96227.72;;;6.29;73.72
86206;BME280;76857;48.140;11.594;2024-02-28T17:35:20;96230.38;;;6.29;74.05
86206;BME280;76857;48.140;11.594;2024-02-28T17:37:45;96232.59;;;6.25;74.00
86206;BME280;76857;48.140;11.594;2024-02-28T17:40:12;96231.16;;;6.23;74.11
86206;BME280;76857;48.140;11.594;2024-02-28T17:42:40;96234.22;;;6.20;74.44
86206;BME280;76857;48.140;11.594;2024-02-28T17:45:07;96236.47;;;6.23;74.26
86206;BME280;76857;48.140;11.594;2024-02-28T17:47:34;96238.28;;;6.22;74.95
86206;BME280;76857;48.140;11.594;2024-02-28T17:50:02;96238.13;;;6.30;74.70
86206;BME280;76857;48.140;11.594;2024-02-28T17:52:29;96239.53;;;6.33;73.23
86206;BME280;76857;48.140;11.594;2024-02-28T17:54:54;96244.06;;;6.33;73.46
86206;BME280;76857;48.140;11.594;2024-02-28T17:57:19;96243.03;;;6.27;73.40